Milnrow, United Kingdom
Current Conditions -  °F | °C
As of 1:50 AM on Saturday 20 Dec 2014 (Local Time) from EGCC Reporting Station
Light Rain Light Rain  
Wind Chill: 35°   Ceiling: 2100
Heat Index: 43°   Visibility: 6mi
Dew Point: 37°   Wind: 15mph
Humidity: 81%   Direction: 230°SW
Pressure: 30.09"   Gusts: NA
Location:  53.61°N, 2.11°W
Report Text: EGCC 200150Z AUTO 23013KT 9999 -RA BKN021/// BKN027/// OVC045/// //////TCU 06/03 Q1019
Loading
Personal Weather Stations






























Interactive Weather Map New forecast layout! Learn more

10-Day Weather Forecast

Advertisements
Track Severe Weather on mobile